createdAt,value
2022-08-23T00:05:08.503Z,20.3
2022-08-23T00:20:00.843Z,20.2
2022-08-23T00:35:01.107Z,20
2022-08-23T00:50:00.841Z,20
2022-08-23T01:05:00.853Z,19.6
2022-08-23T01:20:00.851Z,19.4
2022-08-23T01:35:00.840Z,19.3
2022-08-23T01:50:00.838Z,19.3
2022-08-23T02:05:00.845Z,19.1
2022-08-23T02:20:00.842Z,19
2022-08-23T02:35:04.735Z,18.5
2022-08-23T02:50:00.843Z,18.2
2022-08-23T03:05:00.845Z,18.2
2022-08-23T03:20:00.842Z,18
2022-08-23T03:35:00.846Z,18.2
2022-08-23T03:50:00.886Z,18.4
2022-08-23T04:05:00.837Z,18.5
2022-08-23T04:20:00.837Z,18.6
2022-08-23T04:35:00.844Z,18.5
2022-08-23T04:50:00.847Z,18.4
2022-08-23T05:05:00.847Z,18.2
2022-08-23T05:20:00.844Z,18.2
2022-08-23T05:35:00.840Z,18.3
2022-08-23T05:50:00.850Z,18.3
2022-08-23T06:05:00.843Z,18.5
2022-08-23T06:20:00.890Z,18.6
2022-08-23T06:35:10.244Z,18.6
2022-08-23T06:50:00.854Z,18.7
2022-08-23T07:05:00.847Z,19.1
2022-08-23T07:20:00.845Z,19.8
2022-08-23T07:35:00.848Z,20.6
2022-08-23T07:50:00.850Z,20.9
2022-08-23T08:05:00.839Z,21.4
2022-08-23T08:20:00.841Z,21.9
2022-08-23T08:35:00.853Z,22.1
2022-08-23T08:50:00.846Z,22.4
2022-08-23T09:05:00.849Z,22.5
2022-08-23T09:20:00.866Z,22.9
2022-08-23T09:35:00.847Z,23.1
2022-08-23T09:50:00.842Z,23.7
2022-08-23T10:05:00.916Z,24.1
2022-08-23T10:20:00.846Z,23.8
2022-08-23T10:35:00.837Z,24.8
2022-08-23T10:50:00.841Z,24.4
2022-08-23T11:05:00.860Z,24.9
2022-08-23T11:20:00.845Z,25.1
2022-08-23T11:35:00.840Z,25.4
2022-08-23T11:50:00.847Z,25.6
2022-08-23T12:05:00.837Z,26.5
2022-08-23T12:20:00.849Z,26.8
2022-08-23T12:35:00.846Z,26.5
2022-08-23T12:50:00.845Z,26.4
2022-08-23T13:05:00.841Z,26.9
2022-08-23T13:20:00.844Z,26.9
2022-08-23T13:35:00.851Z,27.5
2022-08-23T13:50:00.852Z,27.5
2022-08-23T14:05:00.879Z,27.7
2022-08-23T14:35:00.841Z,29.8
2022-08-23T14:50:00.840Z,29.6
2022-08-23T15:05:00.848Z,30.6
2022-08-23T15:20:00.840Z,30.6
2022-08-23T15:35:00.854Z,31.6
2022-08-23T15:50:00.841Z,31.7
2022-08-23T16:05:00.838Z,31.7
2022-08-23T16:20:00.874Z,31.9
2022-08-23T16:35:00.848Z,31.1
2022-08-23T16:50:00.845Z,30.5
2022-08-23T17:05:00.840Z,30.6
2022-08-23T17:20:00.842Z,29.9
2022-08-23T17:35:00.840Z,29.6
2022-08-23T17:50:00.844Z,28.4
2022-08-23T18:05:00.973Z,28.1
2022-08-23T18:20:00.843Z,27.8
2022-08-23T18:35:00.844Z,27.4
2022-08-23T18:50:00.850Z,27.1
2022-08-23T19:05:00.848Z,26.8
2022-08-23T19:20:00.841Z,26.4
2022-08-23T19:35:00.840Z,26.5
2022-08-23T19:50:00.851Z,26.3
2022-08-23T20:05:00.845Z,26
2022-08-23T20:20:00.845Z,26
2022-08-23T20:35:00.838Z,25.6
2022-08-23T20:50:00.838Z,25.1
2022-08-23T21:05:00.861Z,24.9
2022-08-23T21:20:00.841Z,24.9
2022-08-23T21:35:00.844Z,24.4
2022-08-23T21:50:00.846Z,24.4
2022-08-23T22:05:00.844Z,24.2
2022-08-23T22:20:00.848Z,23.8
2022-08-23T22:35:00.843Z,23.9
2022-08-23T22:50:00.852Z,23.3
2022-08-23T23:05:00.841Z,23.1
2022-08-23T23:20:00.844Z,23.1
2022-08-23T23:35:00.855Z,22.8
2022-08-23T23:50:00.842Z,22.6
